sensor_id;sensor_type;location;lat;lon;timestamp;pressure;altitude;pressure_sealevel;temperature;humidity
9889;BME280;4983;42.112;24.738;2024-01-30T00:01:10;101938.34;;;2.21;54.33
9889;BME280;4983;42.112;24.738;2024-01-30T00:03:35;101929.91;;;2.15;55.92
9889;BME280;4983;42.112;24.738;2024-01-30T00:06:00;101928.41;;;2.09;55.56
9889;BME280;4983;42.112;24.738;2024-01-30T00:08:28;101930.13;;;2.10;55.60
9889;BME280;4983;42.112;24.738;2024-01-30T00:10:53;101929.16;;;2.13;55.15
9889;BME280;4983;42.112;24.738;2024-01-30T00:13:19;101929.22;;;2.11;55.56
9889;BME280;4983;42.112;24.738;2024-01-30T00:15:45;101936.91;;;2.14;55.10
9889;BME280;4983;42.112;24.738;2024-01-30T00:18:10;101927.72;;;2.06;55.67
9889;BME280;4983;42.112;24.738;2024-01-30T00:20:36;101930.13;;;2.10;55.32
9889;BME280;4983;42.112;24.738;2024-01-30T00:23:01;101942.00;;;2.17;55.93
9889;BME280;4983;42.112;24.738;2024-01-30T00:25:27;101932.44;;;2.16;55.60
9889;BME280;4983;42.112;24.738;2024-01-30T00:27:52;101934.88;;;2.21;55.24
9889;BME280;4983;42.112;24.738;2024-01-30T00:30:18;101940.34;;;2.15;56.00
9889;BME280;4983;42.112;24.738;2024-01-30T00:32:43;101949.72;;;2.19;54.93
9889;BME280;4983;42.112;24.738;2024-01-30T00:35:08;101941.81;;;2.20;55.65
9889;BME280;4983;42.112;24.738;2024-01-30T00:37:35;101943.53;;;2.21;55.65
9889;BME280;4983;42.112;24.738;2024-01-30T00:40:01;101933.13;;;2.21;55.23
9889;BME280;4983;42.112;24.738;2024-01-30T00:42:26;101923.88;;;2.14;55.84
9889;BME280;4983;42.112;24.738;2024-01-30T00:44:52;101937.59;;;2.18;55.23
9889;BME280;4983;42.112;24.738;2024-01-30T00:47:17;101936.63;;;2.20;55.41
9889;BME280;4983;42.112;24.738;2024-01-30T00:49:42;101941.81;;;2.20;55.05
9889;BME280;4983;42.112;24.738;2024-01-30T00:52:08;101945.16;;;2.04;56.19
9889;BME280;4983;42.112;24.738;2024-01-30T00:54:34;101939.09;;;2.03;55.77
9889;BME280;4983;42.112;24.738;2024-01-30T00:56:59;101945.09;;;2.05;55.37
9889;BME280;4983;42.112;24.738;2024-01-30T00:59:24;101936.94;;;1.93;55.56
9889;BME280;4983;42.112;24.738;2024-01-30T01:01:50;101949.66;;;2.00;55.68
9889;BME280;4983;42.112;24.738;2024-01-30T01:04:16;101938.63;;;1.94;56.04
9889;BME280;4983;42.112;24.738;2024-01-30T01:06:42;101937.72;;;1.95;56.47
9889;BME280;4983;42.112;24.738;2024-01-30T01:09:10;101940.06;;;2.01;56.18
9889;BME280;4983;42.112;24.738;2024-01-30T01:11:36;101935.00;;;1.98;56.20
9889;BME280;4983;42.112;24.738;2024-01-30T01:14:03;101946.13;;;2.01;55.93
9889;BME280;4983;42.112;24.738;2024-01-30T01:16:28;101944.75;;;1.93;56.80
9889;BME280;4983;42.112;24.738;2024-01-30T01:18:54;101928.97;;;1.76;56.32
9889;BME280;4983;42.112;24.738;2024-01-30T01:21:19;101916.78;;;1.76;56.30
9889;BME280;4983;42.112;24.738;2024-01-30T01:23:44;101936.16;;;1.91;56.73
9889;BME280;4983;42.112;24.738;2024-01-30T01:26:10;101924.78;;;1.93;57.21
9889;BME280;4983;42.112;24.738;2024-01-30T01:28:35;101918.69;;;1.93;55.81
9889;BME280;4983;42.112;24.738;2024-01-30T01:31:01;101918.41;;;1.79;55.59
9889;BME280;4983;42.112;24.738;2024-01-30T01:33:31;101907.19;;;1.57;56.32
9889;BME280;4983;42.112;24.738;2024-01-30T01:35:58;101920.50;;;1.28;57.67
9889;BME280;4983;42.112;24.738;2024-01-30T01:38:23;101921.44;;;1.04;57.82
9889;BME280;4983;42.112;24.738;2024-01-30T01:40:49;101926.25;;;0.91;58.95
9889;BME280;4983;42.112;24.738;2024-01-30T01:43:14;101913.69;;;0.81;58.55
9889;BME280;4983;42.112;24.738;2024-01-30T01:45:39;101916.53;;;0.73;58.99
9889;BME280;4983;42.112;24.738;2024-01-30T01:48:05;101923.78;;;0.65;59.55
9889;BME280;4983;42.112;24.738;2024-01-30T01:50:31;101906.41;;;0.43;59.73
9889;BME280;4983;42.112;24.738;2024-01-30T01:52:58;101919.19;;;0.49;60.17
9889;BME280;4983;42.112;24.738;2024-01-30T01:55:24;101912.97;;;0.53;60.07
9889;BME280;4983;42.112;24.738;2024-01-30T01:57:50;101914.06;;;0.47;60.17
9889;BME280;4983;42.112;24.738;2024-01-30T02:00:16;101929.25;;;0.58;60.11
9889;BME280;4983;42.112;24.738;2024-01-30T02:02:43;101894.34;;;0.42;59.80
9889;BME280;4983;42.112;24.738;2024-01-30T02:05:10;101917.22;;;0.55;59.86
9889;BME280;4983;42.112;24.738;2024-01-30T02:07:37;101927.00;;;0.49;60.21
9889;BME280;4983;42.112;24.738;2024-01-30T02:10:03;101923.69;;;0.44;60.42
9889;BME280;4983;42.112;24.738;2024-01-30T02:12:29;101935.97;;;0.40;60.87
9889;BME280;4983;42.112;24.738;2024-01-30T02:14:54;101939.53;;;0.38;61.20
9889;BME280;4983;42.112;24.738;2024-01-30T02:17:20;101928.41;;;0.33;61.36
9889;BME280;4983;42.112;24.738;2024-01-30T02:19:46;101929.13;;;0.38;61.86
9889;BME280;4983;42.112;24.738;2024-01-30T02:22:11;101925.81;;;0.33;62.21
9889;BME280;4983;42.112;24.738;2024-01-30T02:24:38;101938.44;;;0.43;62.77
9889;BME280;4983;42.112;24.738;2024-01-30T02:27:03;101923.59;;;0.47;62.42
9889;BME280;4983;42.112;24.738;2024-01-30T02:29:29;101927.09;;;0.46;62.45
9889;BME280;4983;42.112;24.738;2024-01-30T02:31:54;101932.13;;;0.50;62.21
9889;BME280;4983;42.112;24.738;2024-01-30T02:34:19;101937.81;;;0.37;62.86
9889;BME280;4983;42.112;24.738;2024-01-30T02:36:45;101938.66;;;0.37;63.23
9889;BME280;4983;42.112;24.738;2024-01-30T02:39:11;101937.81;;;0.37;62.91
9889;BME280;4983;42.112;24.738;2024-01-30T02:41:36;101939.63;;;0.35;63.70
9889;BME280;4983;42.112;24.738;2024-01-30T02:44:03;101929.28;;;0.33;63.43
9889;BME280;4983;42.112;24.738;2024-01-30T02:46:29;101941.75;;;0.24;64.19
9889;BME280;4983;42.112;24.738;2024-01-30T02:48:54;101934.00;;;0.22;64.20
9889;BME280;4983;42.112;24.738;2024-01-30T02:51:20;101958.44;;;0.41;63.58
9889;BME280;4983;42.112;24.738;2024-01-30T02:53:45;101958.19;;;0.49;63.09
9889;BME280;4983;42.112;24.738;2024-01-30T02:56:10;101950.78;;;0.61;63.11
9889;BME280;4983;42.112;24.738;2024-01-30T02:58:37;101952.22;;;0.70;62.53
9889;BME280;4983;42.112;24.738;2024-01-30T03:01:02;101953.91;;;0.71;62.66
9889;BME280;4983;42.112;24.738;2024-01-30T03:03:28;101956.50;;;0.71;62.73
9889;BME280;4983;42.112;24.738;2024-01-30T03:05:53;101971.69;;;0.81;62.67
9889;BME280;4983;42.112;24.738;2024-01-30T03:08:19;101960.06;;;0.91;62.18
9889;BME280;4983;42.112;24.738;2024-01-30T03:10:45;101957.25;;;0.97;61.82
9889;BME280;4983;42.112;24.738;2024-01-30T03:13:10;101955.41;;;0.99;61.93
9889;BME280;4983;42.112;24.738;2024-01-30T03:15:35;101960.28;;;1.08;61.73
9889;BME280;4983;42.112;24.738;2024-01-30T03:18:02;101948.75;;;1.15;61.36
9889;BME280;4983;42.112;24.738;2024-01-30T03:20:29;101965.06;;;1.19;61.36
9889;BME280;4983;42.112;24.738;2024-01-30T03:22:55;101954.53;;;1.00;61.94
9889;BME280;4983;42.112;24.738;2024-01-30T03:25:20;101954.81;;;0.93;62.73
9889;BME280;4983;42.112;24.738;2024-01-30T03:27:46;101949.94;;;0.84;62.58
9889;BME280;4983;42.112;24.738;2024-01-30T03:30:11;101956.56;;;0.69;63.07
9889;BME280;4983;42.112;24.738;2024-01-30T03:32:37;101952.31;;;0.42;64.08
9889;BME280;4983;42.112;24.738;2024-01-30T03:35:02;101960.97;;;0.18;65.62
9889;BME280;4983;42.112;24.738;2024-01-30T03:37:28;101960.31;;;0.12;65.28
9889;BME280;4983;42.112;24.738;2024-01-30T03:39:53;101969.03;;;0.11;64.94
9889;BME280;4983;42.112;24.738;2024-01-30T03:42:18;101957.94;;;0.06;65.23
9889;BME280;4983;42.112;24.738;2024-01-30T03:44:44;101957.09;;;0.05;65.03
9889;BME280;4983;42.112;24.738;2024-01-30T03:47:09;101958.00;;;0.04;65.47
9889;BME280;4983;42.112;24.738;2024-01-30T03:49:35;101953.81;;;0.00;65.72
9889;BME280;4983;42.112;24.738;2024-01-30T03:52:00;101951.31;;;-0.03;65.34
9889;BME280;4983;42.112;24.738;2024-01-30T03:54:25;101946.34;;;-0.11;66.12
9889;BME280;4983;42.112;24.738;2024-01-30T03:56:51;101921.19;;;-0.35;65.91
9889;BME280;4983;42.112;24.738;2024-01-30T03:59:16;101960.63;;;-0.24;66.98
9889;BME280;4983;42.112;24.738;2024-01-30T04:01:47;101954.84;;;-0.32;66.52
9889;BME280;4983;42.112;24.738;2024-01-30T04:04:12;101954.16;;;-0.37;67.36
9889;BME280;4983;42.112;24.738;2024-01-30T04:06:38;101962.94;;;-0.41;67.71
9889;BME280;4983;42.112;24.738;2024-01-30T04:09:03;101967.22;;;-0.40;67.76
9889;BME280;4983;42.112;24.738;2024-01-30T04:11:29;101963.03;;;-0.44;68.50
9889;BME280;4983;42.112;24.738;2024-01-30T04:13:54;101955.34;;;-0.47;68.92
9889;BME280;4983;42.112;24.738;2024-01-30T04:16:20;101953.66;;;-0.48;68.88
9889;BME280;4983;42.112;24.738;2024-01-30T04:18:47;101951.22;;;-0.54;69.15
9889;BME280;4983;42.112;24.738;2024-01-30T04:21:12;101953.97;;;-0.58;69.66
9889;BME280;4983;42.112;24.738;2024-01-30T04:23:37;101957.28;;;-0.53;69.95
9889;BME280;4983;42.112;24.738;2024-01-30T04:26:04;101951.69;;;-0.41;70.02
9889;BME280;4983;42.112;24.738;2024-01-30T04:28:29;101954.66;;;-0.26;68.74
9889;BME280;4983;42.112;24.738;2024-01-30T04:30:55;101952.25;;;-0.32;68.44
9889;BME280;4983;42.112;24.738;2024-01-30T04:33:20;101958.16;;;-0.27;68.92
9889;BME280;4983;42.112;24.738;2024-01-30T04:35:46;101957.06;;;-0.20;68.61
9889;BME280;4983;42.112;24.738;2024-01-30T04:38:11;101958.44;;;-0.10;67.62
9889;BME280;4983;42.112;24.738;2024-01-30T04:40:36;101961.66;;;-0.02;67.01
9889;BME280;4983;42.112;24.738;2024-01-30T04:43:02;101955.22;;;0.08;66.72
9889;BME280;4983;42.112;24.738;2024-01-30T04:45:27;101971.19;;;0.23;66.65
9889;BME280;4983;42.112;24.738;2024-01-30T04:47:53;101972.38;;;0.39;66.19
9889;BME280;4983;42.112;24.738;2024-01-30T04:50:18;101967.13;;;0.40;66.33
9889;BME280;4983;42.112;24.738;2024-01-30T04:52:44;101966.75;;;0.51;66.40
9889;BME280;4983;42.112;24.738;2024-01-30T04:55:09;101969.72;;;0.65;65.48
9889;BME280;4983;42.112;24.738;2024-01-30T04:57:34;101979.28;;;0.64;65.63
9889;BME280;4983;42.112;24.738;2024-01-30T05:00:00;101980.56;;;0.76;65.45
9889;BME280;4983;42.112;24.738;2024-01-30T05:02:27;101984.66;;;0.83;65.64
9889;BME280;4983;42.112;24.738;2024-01-30T05:04:52;101982.03;;;0.83;65.31
9889;BME280;4983;42.112;24.738;2024-01-30T05:07:17;101983.13;;;0.77;64.91
9889;BME280;4983;42.112;24.738;2024-01-30T05:09:43;101974.03;;;0.89;64.58
9889;BME280;4983;42.112;24.738;2024-01-30T05:12:09;101985.22;;;0.91;64.69
9889;BME280;4983;42.112;24.738;2024-01-30T05:14:34;101979.38;;;0.84;64.71
9889;BME280;4983;42.112;24.738;2024-01-30T05:16:59;101981.84;;;0.89;64.46
9889;BME280;4983;42.112;24.738;2024-01-30T05:19:25;101980.91;;;0.90;64.52
9889;BME280;4983;42.112;24.738;2024-01-30T05:21:50;101982.34;;;0.98;64.36
9889;BME280;4983;42.112;24.738;2024-01-30T05:24:16;101992.63;;;1.01;64.61
9889;BME280;4983;42.112;24.738;2024-01-30T05:26:41;101991.72;;;1.02;64.03
9889;BME280;4983;42.112;24.738;2024-01-30T05:29:07;101996.72;;;1.08;63.83
9889;BME280;4983;42.112;24.738;2024-01-30T05:31:33;102000.03;;;1.12;63.80
9889;BME280;4983;42.112;24.738;2024-01-30T05:33:59;101986.19;;;1.11;63.69
9889;BME280;4983;42.112;24.738;2024-01-30T05:36:25;101971.41;;;1.12;63.83
9889;BME280;4983;42.112;24.738;2024-01-30T05:38:50;101972.16;;;1.15;63.35
9889;BME280;4983;42.112;24.738;2024-01-30T05:41:16;101984.75;;;1.26;63.31
9889;BME280;4983;42.112;24.738;2024-01-30T05:43:41;101989.69;;;1.33;63.26
9889;BME280;4983;42.112;24.738;2024-01-30T05:46:07;101985.06;;;1.40;62.21
9889;BME280;4983;42.112;24.738;2024-01-30T05:48:32;101988.66;;;1.37;62.72
9889;BME280;4983;42.112;24.738;2024-01-30T05:50:58;101986.09;;;1.36;62.95
9889;BME280;4983;42.112;24.738;2024-01-30T05:53:25;101957.16;;;1.22;62.78
9889;BME280;4983;42.112;24.738;2024-01-30T05:55:50;101985.88;;;1.42;62.93
9889;BME280;4983;42.112;24.738;2024-01-30T05:58:16;101980.56;;;1.45;62.76
9889;BME280;4983;42.112;24.738;2024-01-30T06:00:41;101980.03;;;1.35;63.34
9889;BME280;4983;42.112;24.738;2024-01-30T06:03:07;101983.81;;;1.50;62.14
9889;BME280;4983;42.112;24.738;2024-01-30T06:05:32;101979.00;;;1.41;62.68
9889;BME280;4983;42.112;24.738;2024-01-30T06:07:58;101990.22;;;1.41;62.40
9889;BME280;4983;42.112;24.738;2024-01-30T06:10:23;101992.78;;;1.43;62.18
9889;BME280;4983;42.112;24.738;2024-01-30T06:12:48;101988.47;;;1.42;63.16
9889;BME280;4983;42.112;24.738;2024-01-30T06:15:14;101985.88;;;1.42;63.27
9889;BME280;4983;42.112;24.738;2024-01-30T06:17:39;101988.53;;;1.40;63.18
9889;BME280;4983;42.112;24.738;2024-01-30T06:20:06;102000.03;;;1.35;64.25
9889;BME280;4983;42.112;24.738;2024-01-30T06:22:31;101993.91;;;1.36;64.21
9889;BME280;4983;42.112;24.738;2024-01-30T06:24:57;101997.31;;;1.38;63.48
9889;BME280;4983;42.112;24.738;2024-01-30T06:27:22;101996.28;;;1.63;78.78
9889;BME280;4983;42.112;24.738;2024-01-30T06:29:48;102001.81;;;1.99;68.82
9889;BME280;4983;42.112;24.738;2024-01-30T06:32:13;101987.97;;;1.97;64.05
9889;BME280;4983;42.112;24.738;2024-01-30T06:34:38;101998.22;;;2.01;65.32
9889;BME280;4983;42.112;24.738;2024-01-30T06:37:05;101987.00;;;1.99;62.80
9889;BME280;4983;42.112;24.738;2024-01-30T06:39:30;101983.88;;;1.91;63.15
9889;BME280;4983;42.112;24.738;2024-01-30T06:41:56;101994.06;;;1.76;63.01
9889;BME280;4983;42.112;24.738;2024-01-30T06:44:21;101994.59;;;1.62;63.94
9889;BME280;4983;42.112;24.738;2024-01-30T06:46:46;101992.84;;;1.63;63.52
9889;BME280;4983;42.112;24.738;2024-01-30T06:49:12;101999.59;;;1.68;64.70
9889;BME280;4983;42.112;24.738;2024-01-30T06:51:37;102007.06;;;1.76;62.68
9889;BME280;4983;42.112;24.738;2024-01-30T06:54:03;102005.38;;;1.75;62.72
9889;BME280;4983;42.112;24.738;2024-01-30T06:56:28;102011.50;;;1.74;62.57
9889;BME280;4983;42.112;24.738;2024-01-30T06:58:54;102002.59;;;1.79;62.33
9889;BME280;4983;42.112;24.738;2024-01-30T07:01:19;102005.81;;;1.86;61.87
9889;BME280;4983;42.112;24.738;2024-01-30T07:03:45;102004.34;;;1.79;61.63
9889;BME280;4983;42.112;24.738;2024-01-30T07:06:10;102015.69;;;1.78;62.67
9889;BME280;4983;42.112;24.738;2024-01-30T07:08:38;102012.03;;;1.82;62.42
9889;BME280;4983;42.112;24.738;2024-01-30T07:11:05;102014.13;;;1.74;63.47
9889;BME280;4983;42.112;24.738;2024-01-30T07:13:31;102008.22;;;1.90;63.00
9889;BME280;4983;42.112;24.738;2024-01-30T07:15:57;102005.63;;;1.90;62.47
9889;BME280;4983;42.112;24.738;2024-01-30T07:18:22;101999.19;;;1.99;62.32
9889;BME280;4983;42.112;24.738;2024-01-30T07:20:47;102009.63;;;1.99;62.72
9889;BME280;4983;42.112;24.738;2024-01-30T07:23:15;102007.72;;;2.02;61.91
9889;BME280;4983;42.112;24.738;2024-01-30T07:25:46;101984.41;;;1.99;62.44
9889;BME280;4983;42.112;24.738;2024-01-30T07:28:14;102014.19;;;2.14;61.94
9889;BME280;4983;42.112;24.738;2024-01-30T07:30:42;102000.38;;;2.12;61.95
9889;BME280;4983;42.112;24.738;2024-01-30T07:33:07;102018.75;;;2.09;61.41
9889;BME280;4983;42.112;24.738;2024-01-30T07:35:34;102012.53;;;2.13;61.73
9889;BME280;4983;42.112;24.738;2024-01-30T07:37:59;102013.22;;;2.16;61.53
9889;BME280;4983;42.112;24.738;2024-01-30T07:40:24;102021.09;;;2.15;60.72
9889;BME280;4983;42.112;24.738;2024-01-30T07:42:50;102015.19;;;2.11;60.43
9889;BME280;4983;42.112;24.738;2024-01-30T07:45:15;102010.56;;;2.18;60.17
9889;BME280;4983;42.112;24.738;2024-01-30T07:47:41;102016.44;;;2.23;59.51
9889;BME280;4983;42.112;24.738;2024-01-30T07:50:07;102001.81;;;2.19;59.51
9889;BME280;4983;42.112;24.738;2024-01-30T07:52:33;102014.59;;;2.25;59.58
9889;BME280;4983;42.112;24.738;2024-01-30T07:54:59;102006.22;;;2.18;59.42
9889;BME280;4983;42.112;24.738;2024-01-30T07:57:24;102012.25;;;2.19;59.84
9889;BME280;4983;42.112;24.738;2024-01-30T07:59:50;102004.44;;;2.19;59.43
9889;BME280;4983;42.112;24.738;2024-01-30T08:02:15;102000.88;;;2.21;59.04
9889;BME280;4983;42.112;24.738;2024-01-30T08:04:41;102008.63;;;2.23;60.00
9889;BME280;4983;42.112;24.738;2024-01-30T08:07:06;102008.47;;;2.26;60.36
9889;BME280;4983;42.112;24.738;2024-01-30T08:09:32;102009.09;;;2.32;60.14
9889;BME280;4983;42.112;24.738;2024-01-30T08:11:57;102008.44;;;2.47;59.79
9889;BME280;4983;42.112;24.738;2024-01-30T08:14:23;102006.69;;;2.48;59.75
9889;BME280;4983;42.112;24.738;2024-01-30T08:16:48;102011.25;;;2.63;59.91
9889;BME280;4983;42.112;24.738;2024-01-30T08:19:16;102001.31;;;2.71;58.89
9889;BME280;4983;42.112;24.738;2024-01-30T08:21:42;102005.84;;;2.67;59.46
9889;BME280;4983;42.112;24.738;2024-01-30T08:24:07;102001.75;;;2.80;58.36
9889;BME280;4983;42.112;24.738;2024-01-30T08:26:33;101998.03;;;2.86;57.49
9889;BME280;4983;42.112;24.738;2024-01-30T08:28:59;101997.63;;;2.95;57.06
9889;BME280;4983;42.112;24.738;2024-01-30T08:31:24;102005.34;;;2.98;57.58
9889;BME280;4983;42.112;24.738;2024-01-30T08:33:50;101989.69;;;2.98;57.07
9889;BME280;4983;42.112;24.738;2024-01-30T08:36:16;102001.06;;;2.95;57.33
9889;BME280;4983;42.112;24.738;2024-01-30T08:38:41;102002.66;;;2.99;57.38
9889;BME280;4983;42.112;24.738;2024-01-30T08:41:07;101997.00;;;3.08;57.16
9889;BME280;4983;42.112;24.738;2024-01-30T08:43:33;102004.78;;;3.10;57.15
9889;BME280;4983;42.112;24.738;2024-01-30T08:46:01;102003.53;;;3.18;57.26
9889;BME280;4983;42.112;24.738;2024-01-30T08:48:26;102000.97;;;3.17;57.01
9889;BME280;4983;42.112;24.738;2024-01-30T08:50:52;101998.44;;;3.34;55.31
9889;BME280;4983;42.112;24.738;2024-01-30T08:53:17;101994.28;;;3.30;54.37
9889;BME280;4983;42.112;24.738;2024-01-30T08:55:43;102006.63;;;3.45;53.22
9889;BME280;4983;42.112;24.738;2024-01-30T08:58:09;101996.88;;;3.49;53.29
9889;BME280;4983;42.112;24.738;2024-01-30T09:00:34;102004.16;;;3.42;53.91
9889;BME280;4983;42.112;24.738;2024-01-30T09:03:00;101991.81;;;3.46;53.04
9889;BME280;4983;42.112;24.738;2024-01-30T09:05:25;101994.63;;;3.41;52.59
9889;BME280;4983;42.112;24.738;2024-01-30T09:07:50;101996.88;;;3.49;51.93
9889;BME280;4983;42.112;24.738;2024-01-30T09:10:16;101995.53;;;3.40;51.41
9889;BME280;4983;42.112;24.738;2024-01-30T09:12:41;102000.47;;;3.46;50.90
9889;BME280;4983;42.112;24.738;2024-01-30T09:15:07;101997.81;;;3.48;50.29
9889;BME280;4983;42.112;24.738;2024-01-30T09:17:33;102003.09;;;3.46;51.05
9889;BME280;4983;42.112;24.738;2024-01-30T09:19:58;102000.00;;;3.57;50.94
9889;BME280;4983;42.112;24.738;2024-01-30T09:22:24;101989.03;;;3.49;49.30
9889;BME280;4983;42.112;24.738;2024-01-30T09:24:50;101995.13;;;3.49;50.52
9889;BME280;4983;42.112;24.738;2024-01-30T09:27:15;101989.50;;;3.40;50.85
9889;BME280;4983;42.112;24.738;2024-01-30T09:29:40;101988.16;;;3.31;51.45
9889;BME280;4983;42.112;24.738;2024-01-30T09:32:06;101983.41;;;3.39;51.14
9889;BME280;4983;42.112;24.738;2024-01-30T09:34:32;101986.44;;;3.49;50.97
9889;BME280;4983;42.112;24.738;2024-01-30T09:36:58;101979.38;;;3.32;51.04
9889;BME280;4983;42.112;24.738;2024-01-30T09:39:24;101970.66;;;3.33;51.88
9889;BME280;4983;42.112;24.738;2024-01-30T09:42:05;101968.53;;;3.41;50.97
9889;BME280;4983;42.112;24.738;2024-01-30T09:44:35;101960.75;;;3.40;51.27
9889;BME280;4983;42.112;24.738;2024-01-30T09:47:02;101959.44;;;3.50;51.72
9889;BME280;4983;42.112;24.738;2024-01-30T09:49:34;101966.72;;;3.60;51.89
9889;BME280;4983;42.112;24.738;2024-01-30T09:52:03;101935.91;;;3.50;50.43
9889;BME280;4983;42.112;24.738;2024-01-30T09:54:30;101951.19;;;3.57;51.29
9889;BME280;4983;42.112;24.738;2024-01-30T09:56:56;101938.75;;;3.45;51.31
9889;BME280;4983;42.112;24.738;2024-01-30T09:59:22;101934.22;;;3.49;51.17
9889;BME280;4983;42.112;24.738;2024-01-30T10:01:48;101953.25;;;3.69;51.81
9889;BME280;4983;42.112;24.738;2024-01-30T10:04:13;101942.97;;;3.83;49.46
9889;BME280;4983;42.112;24.738;2024-01-30T10:06:40;101948.66;;;3.91;49.99
9889;BME280;4983;42.112;24.738;2024-01-30T10:09:05;101956.22;;;3.97;49.67
9889;BME280;4983;42.112;24.738;2024-01-30T10:11:31;101943.81;;;4.01;49.52
9889;BME280;4983;42.112;24.738;2024-01-30T10:13:56;101939.13;;;4.07;50.01
9889;BME280;4983;42.112;24.738;2024-01-30T10:16:21;101941.97;;;4.20;49.20
9889;BME280;4983;42.112;24.738;2024-01-30T10:18:47;101939.59;;;4.32;48.99
9889;BME280;4983;42.112;24.738;2024-01-30T10:21:12;101948.28;;;4.33;48.39
9889;BME280;4983;42.112;24.738;2024-01-30T10:23:38;101940.97;;;4.39;47.13
9889;BME280;4983;42.112;24.738;2024-01-30T10:26:04;101941.75;;;4.41;47.22
9889;BME280;4983;42.112;24.738;2024-01-30T10:28:30;101939.34;;;4.54;47.57
9889;BME280;4983;42.112;24.738;2024-01-30T10:30:59;101938.00;;;4.62;46.53
9889;BME280;4983;42.112;24.738;2024-01-30T10:33:26;101948.31;;;4.65;45.83
9889;BME280;4983;42.112;24.738;2024-01-30T10:35:56;101932.13;;;4.74;45.24
9889;BME280;4983;42.112;24.738;2024-01-30T10:38:28;101928.75;;;4.72;44.50
9889;BME280;4983;42.112;24.738;2024-01-30T10:40:56;101935.94;;;4.84;45.69
9889;BME280;4983;42.112;24.738;2024-01-30T10:43:22;101932.34;;;5.02;45.00
9889;BME280;4983;42.112;24.738;2024-01-30T10:45:49;101933.53;;;5.12;46.73
9889;BME280;4983;42.112;24.738;2024-01-30T10:48:21;101929.22;;;5.27;45.30
9889;BME280;4983;42.112;24.738;2024-01-30T10:50:50;101930.34;;;5.38;45.18
9889;BME280;4983;42.112;24.738;2024-01-30T10:53:17;101933.81;;;5.54;44.25
9889;BME280;4983;42.112;24.738;2024-01-30T10:55:43;101923.72;;;5.62;44.42
9889;BME280;4983;42.112;24.738;2024-01-30T10:58:11;101922.19;;;5.74;43.87
9889;BME280;4983;42.112;24.738;2024-01-30T11:00:37;101918.81;;;5.87;43.20
9889;BME280;4983;42.112;24.738;2024-01-30T11:03:04;101919.19;;;5.95;42.36
9889;BME280;4983;42.112;24.738;2024-01-30T11:05:30;101920.63;;;6.01;40.64
9889;BME280;4983;42.112;24.738;2024-01-30T11:07:55;101908.94;;;6.06;42.36
9889;BME280;4983;42.112;24.738;2024-01-30T11:10:24;101912.75;;;6.01;42.45
9889;BME280;4983;42.112;24.738;2024-01-30T11:12:50;101904.53;;;6.51;60.92
9889;BME280;4983;42.112;24.738;2024-01-30T11:15:17;101898.88;;;6.85;48.38
9889;BME280;4983;42.112;24.738;2024-01-30T11:17:43;101905.03;;;7.12;42.61
9889;BME280;4983;42.112;24.738;2024-01-30T11:20:19;101900.72;;;7.11;49.43
9889;BME280;4983;42.112;24.738;2024-01-30T11:22:50;101897.59;;;7.18;41.03
9889;BME280;4983;42.112;24.738;2024-01-30T11:25:17;101897.13;;;7.26;39.60
9889;BME280;4983;42.112;24.738;2024-01-30T11:27:44;101899.91;;;7.37;39.08
9889;BME280;4983;42.112;24.738;2024-01-30T11:30:10;101883.47;;;7.99;38.98
9889;BME280;4983;42.112;24.738;2024-01-30T11:32:36;101881.94;;;8.71;36.78
9889;BME280;4983;42.112;24.738;2024-01-30T11:35:03;101874.72;;;8.62;36.28
9889;BME280;4983;42.112;24.738;2024-01-30T11:37:31;101877.47;;;8.97;36.72
9889;BME280;4983;42.112;24.738;2024-01-30T11:39:56;101863.78;;;9.28;35.64
9889;BME280;4983;42.112;24.738;2024-01-30T11:42:23;101865.09;;;9.46;35.29
9889;BME280;4983;42.112;24.738;2024-01-30T11:44:50;101853.91;;;9.43;35.03
9889;BME280;4983;42.112;24.738;2024-01-30T11:47:16;101873.16;;;9.32;35.38
9889;BME280;4983;42.112;24.738;2024-01-30T11:49:42;101867.09;;;9.19;35.46
9889;BME280;4983;42.112;24.738;2024-01-30T11:52:09;101858.41;;;9.30;35.39
9889;BME280;4983;42.112;24.738;2024-01-30T11:54:34;101854.69;;;9.90;34.66
9889;BME280;4983;42.112;24.738;2024-01-30T11:57:00;101836.94;;;10.27;33.36
9889;BME280;4983;42.112;24.738;2024-01-30T11:59:25;101849.56;;;10.56;33.00
9889;BME280;4983;42.112;24.738;2024-01-30T12:01:51;101824.84;;;10.46;31.76
9889;BME280;4983;42.112;24.738;2024-01-30T12:04:17;101832.00;;;10.66;32.64
9889;BME280;4983;42.112;24.738;2024-01-30T12:06:43;101829.59;;;10.52;32.21
9889;BME280;4983;42.112;24.738;2024-01-30T12:09:09;101832.75;;;10.46;32.50
9889;BME280;4983;42.112;24.738;2024-01-30T12:11:48;101808.22;;;10.88;32.28
9889;BME280;4983;42.112;24.738;2024-01-30T12:14:16;101819.59;;;11.42;31.63
9889;BME280;4983;42.112;24.738;2024-01-30T12:16:42;101818.00;;;11.51;29.60
9889;BME280;4983;42.112;24.738;2024-01-30T12:19:07;101806.81;;;11.47;30.10
9889;BME280;4983;42.112;24.738;2024-01-30T12:21:33;101807.13;;;11.33;29.48
9889;BME280;4983;42.112;24.738;2024-01-30T12:23:59;101805.19;;;11.35;30.30
9889;BME280;4983;42.112;24.738;2024-01-30T12:26:25;101797.44;;;10.47;30.36
9889;BME280;4983;42.112;24.738;2024-01-30T12:28:54;101789.28;;;10.61;29.81
9889;BME280;4983;42.112;24.738;2024-01-30T12:31:32;101785.88;;;10.92;29.68
9889;BME280;4983;42.112;24.738;2024-01-30T12:33:59;101780.75;;;10.69;30.10
9889;BME280;4983;42.112;24.738;2024-01-30T12:36:25;101781.16;;;10.31;31.23
9889;BME280;4983;42.112;24.738;2024-01-30T12:38:50;101778.25;;;10.12;32.33
9889;BME280;4983;42.112;24.738;2024-01-30T12:41:16;101784.66;;;9.86;31.92
9889;BME280;4983;42.112;24.738;2024-01-30T12:43:42;101778.63;;;9.39;32.34
9889;BME280;4983;42.112;24.738;2024-01-30T12:46:08;101788.94;;;9.07;33.26
9889;BME280;4983;42.112;24.738;2024-01-30T12:48:33;101792.22;;;8.62;34.31
9889;BME280;4983;42.112;24.738;2024-01-30T12:50:59;101784.81;;;8.31;35.43
9889;BME280;4983;42.112;24.738;2024-01-30T12:53:24;101786.22;;;8.60;35.27
9889;BME280;4983;42.112;24.738;2024-01-30T12:55:50;101775.53;;;8.74;34.57
9889;BME280;4983;42.112;24.738;2024-01-30T12:58:16;101786.31;;;8.71;35.21
9889;BME280;4983;42.112;24.738;2024-01-30T13:00:41;101786.03;;;8.50;35.53
9889;BME280;4983;42.112;24.738;2024-01-30T13:03:10;101781.00;;;8.10;36.36